createdAt,value
2022-12-12T00:00:24.426Z,10.63
2022-12-12T00:03:27.175Z,9.68
2022-12-12T00:06:29.645Z,9.32
2022-12-12T00:09:32.043Z,9.65
2022-12-12T00:12:34.205Z,9.82
2022-12-12T00:15:36.869Z,9.57
2022-12-12T00:18:39.736Z,9.55
2022-12-12T00:21:42.198Z,9.80
2022-12-12T00:24:44.274Z,10.00
2022-12-12T00:27:46.683Z,8.60
2022-12-12T00:30:48.839Z,9.50
2022-12-12T00:33:51.325Z,9.30
2022-12-12T00:36:53.445Z,9.38
2022-12-12T00:39:55.809Z,9.85
2022-12-12T00:42:57.972Z,9.45
2022-12-12T00:46:01.553Z,9.90
2022-12-12T00:49:03.988Z,9.70
2022-12-12T00:52:06.382Z,9.90
2022-12-12T00:55:11.934Z,9.50
2022-12-12T00:58:14.552Z,9.55
2022-12-12T01:01:20.343Z,10.02
2022-12-12T01:04:22.740Z,10.25
2022-12-12T01:07:24.832Z,10.75
2022-12-12T01:10:27.399Z,10.48
2022-12-12T01:13:30.090Z,10.63
2022-12-12T01:16:32.551Z,10.32
2022-12-12T01:19:34.690Z,10.23
2022-12-12T01:22:37.413Z,10.68
2022-12-12T01:25:40.028Z,11.20
2022-12-12T01:28:43.815Z,10.70
2022-12-12T01:31:45.996Z,10.65
2022-12-12T01:34:48.486Z,11.30
2022-12-12T01:37:51.008Z,10.95
2022-12-12T01:40:54.260Z,10.75
2022-12-12T01:43:56.476Z,10.82
2022-12-12T01:46:58.936Z,9.45
2022-12-12T01:50:06.306Z,8.50
2022-12-12T01:53:09.668Z,8.80
2022-12-12T01:56:15.110Z,8.38
2022-12-12T01:59:21.063Z,8.60
2022-12-12T02:02:23.321Z,8.40
2022-12-12T02:05:34.750Z,7.87
2022-12-12T02:11:51.964Z,6.37
2022-12-12T02:14:54.671Z,6.60
2022-12-12T02:18:12.645Z,8.45
2022-12-12T02:21:22.800Z,8.02
2022-12-12T02:24:47.892Z,5.72
2022-12-12T02:28:05.353Z,5.65
2022-12-12T02:31:22.105Z,6.25
2022-12-12T02:34:44.128Z,7.28
2022-12-12T02:37:55.507Z,8.00
2022-12-12T02:44:39.413Z,8.55
2022-12-12T02:47:48.425Z,9.50
2022-12-12T02:50:54.225Z,10.38
2022-12-12T02:53:59.858Z,11.30
2022-12-12T02:57:03.480Z,11.43
2022-12-12T03:00:12.551Z,11.32
2022-12-12T03:03:51.118Z,11.90
2022-12-12T03:07:28.144Z,13.73
2022-12-12T03:10:55.307Z,11.80
2022-12-12T03:14:12.450Z,12.10
2022-12-12T03:17:45.811Z,12.00
2022-12-12T03:20:53.754Z,12.02
2022-12-12T03:24:02.894Z,11.07
2022-12-12T03:27:11.510Z,11.00
2022-12-12T03:30:17.673Z,10.85
2022-12-12T03:33:29.125Z,10.65
2022-12-12T03:36:42.119Z,11.65
2022-12-12T03:39:56.511Z,10.55
2022-12-12T03:43:31.878Z,10.18
2022-12-12T03:46:42.321Z,9.48
2022-12-12T03:49:55.280Z,11.30
2022-12-12T03:53:08.344Z,10.43
2022-12-12T03:56:19.596Z,10.90
2022-12-12T03:59:30.322Z,10.65
2022-12-12T04:02:53.691Z,10.85
2022-12-12T04:06:28.561Z,11.90
2022-12-12T04:09:49.569Z,10.73
2022-12-12T04:16:15.299Z,10.48
2022-12-12T04:19:44.494Z,10.85
2022-12-12T04:23:15.167Z,10.95
2022-12-12T04:26:39.655Z,10.52
2022-12-12T04:30:00.572Z,11.10
2022-12-12T04:36:15.181Z,9.77
2022-12-12T04:39:20.337Z,10.52
2022-12-12T04:42:26.264Z,11.63
2022-12-12T04:45:34.420Z,10.85
2022-12-12T04:48:53.345Z,10.75
2022-12-12T04:52:01.527Z,10.07
2022-12-12T04:55:11.147Z,10.20
2022-12-12T04:58:15.015Z,10.10
2022-12-12T05:01:26.428Z,10.50
2022-12-12T05:04:56.174Z,9.52
2022-12-12T05:08:06.688Z,10.32
2022-12-12T05:11:11.085Z,9.65
2022-12-12T05:14:15.758Z,9.75
2022-12-12T05:17:27.397Z,10.07
2022-12-12T05:20:29.725Z,10.20
2022-12-12T05:23:34.762Z,10.50
2022-12-12T05:26:41.057Z,10.45
2022-12-12T05:29:43.452Z,10.10
2022-12-12T05:32:45.529Z,10.05
2022-12-12T05:35:48.615Z,10.73
2022-12-12T05:38:50.703Z,11.52
2022-12-12T05:41:53.112Z,12.02
2022-12-12T05:44:55.295Z,11.30
2022-12-12T05:47:57.883Z,11.52
2022-12-12T05:51:04.023Z,12.10
2022-12-12T05:54:06.462Z,12.13
2022-12-12T05:57:09.119Z,13.02
2022-12-12T06:00:11.846Z,11.88
2022-12-12T06:03:14.665Z,12.57
2022-12-12T06:06:16.840Z,12.15
2022-12-12T06:09:19.197Z,12.75
2022-12-12T06:12:21.481Z,11.45
2022-12-12T06:15:24.002Z,12.13
2022-12-12T06:18:26.226Z,12.23
2022-12-12T06:21:28.576Z,12.37
2022-12-12T06:24:30.741Z,12.73
2022-12-12T06:27:33.231Z,12.98
2022-12-12T06:30:35.579Z,12.43
2022-12-12T06:33:38.437Z,12.40
2022-12-12T06:36:40.604Z,12.13
2022-12-12T06:39:43.101Z,12.88
2022-12-12T06:42:48.556Z,12.25
2022-12-12T06:45:52.063Z,13.82
2022-12-12T06:48:55.911Z,12.10
2022-12-12T06:51:58.367Z,13.18
2022-12-12T06:55:01.047Z,14.20
2022-12-12T06:58:03.445Z,13.05
2022-12-12T07:01:06.445Z,13.48
2022-12-12T07:04:16.935Z,13.35
2022-12-12T07:07:19.108Z,13.03
2022-12-12T07:10:21.686Z,12.55
2022-12-12T07:13:23.760Z,13.60
2022-12-12T07:16:26.185Z,13.18
2022-12-12T07:19:28.397Z,13.18
2022-12-12T07:22:30.799Z,13.55
2022-12-12T07:25:33.358Z,13.43
2022-12-12T07:28:38.090Z,12.88
2022-12-12T07:31:40.179Z,13.07
2022-12-12T07:34:42.621Z,12.63
2022-12-12T07:37:44.706Z,11.68
2022-12-12T07:40:47.443Z,12.70
2022-12-12T07:43:51.038Z,12.77
2022-12-12T07:46:53.571Z,12.52
2022-12-12T07:49:55.751Z,12.10
2022-12-12T07:52:58.109Z,11.43
2022-12-12T07:56:00.274Z,11.82
2022-12-12T07:59:03.831Z,11.12
2022-12-12T08:02:06.333Z,11.35
2022-12-12T08:05:09.031Z,11.43
2022-12-12T08:08:11.547Z,11.02
2022-12-12T08:11:17.096Z,11.10
2022-12-12T08:14:19.373Z,11.00
2022-12-12T08:17:21.877Z,11.23
2022-12-12T08:20:23.990Z,10.27
2022-12-12T08:23:26.411Z,10.32
2022-12-12T08:26:29.854Z,11.10
2022-12-12T08:29:32.267Z,10.40
2022-12-12T08:32:34.432Z,10.35
2022-12-12T08:35:36.806Z,11.35
2022-12-12T08:38:39.003Z,10.30
2022-12-12T08:41:43.715Z,10.05
2022-12-12T08:44:45.865Z,10.73
2022-12-12T08:47:48.812Z,11.18
2022-12-12T08:50:52.472Z,10.35
2022-12-12T08:53:55.381Z,9.75
2022-12-12T08:56:57.820Z,9.80
2022-12-12T09:00:00.144Z,9.77
2022-12-12T09:03:02.428Z,8.70
2022-12-12T09:06:07.002Z,9.88
2022-12-12T09:09:09.214Z,8.93
2022-12-12T09:12:11.661Z,9.40
2022-12-12T09:15:14.625Z,9.13
2022-12-12T09:18:17.371Z,8.75
2022-12-12T09:21:20.469Z,8.80
2022-12-12T09:24:24.122Z,9.05
2022-12-12T09:27:26.406Z,9.60
2022-12-12T09:30:28.766Z,8.90
2022-12-12T09:33:30.916Z,8.98
2022-12-12T09:36:33.312Z,8.93
2022-12-12T09:39:35.480Z,9.18
2022-12-12T09:42:47.144Z,9.75
2022-12-12T09:45:50.165Z,9.05
2022-12-12T09:48:57.104Z,9.10
2022-12-12T09:52:01.104Z,9.57
2022-12-12T09:55:23.273Z,9.65
2022-12-12T09:58:47.316Z,8.52
2022-12-12T10:01:59.636Z,9.15
2022-12-12T10:05:09.122Z,8.65
2022-12-12T10:08:32.983Z,9.50
2022-12-12T10:11:55.785Z,8.82
2022-12-12T10:15:13.137Z,9.43
2022-12-12T10:18:35.381Z,9.43
2022-12-12T10:21:41.169Z,9.15
2022-12-12T10:24:50.853Z,9.52
2022-12-12T10:28:14.220Z,8.60
2022-12-12T10:31:24.356Z,8.52
2022-12-12T10:34:32.551Z,9.18
2022-12-12T10:38:17.491Z,9.00
2022-12-12T10:41:29.141Z,8.15
2022-12-12T10:44:45.585Z,8.27
2022-12-12T10:47:49.604Z,9.18
2022-12-12T10:51:02.379Z,8.50
2022-12-12T10:54:22.183Z,9.10
2022-12-12T10:57:28.005Z,8.88
2022-12-12T11:00:41.801Z,9.30
2022-12-12T11:03:53.698Z,8.00
2022-12-12T11:06:56.253Z,8.40
2022-12-12T11:10:01.875Z,8.00
2022-12-12T11:13:10.639Z,7.62
2022-12-12T11:16:17.835Z,8.13
2022-12-12T11:19:22.633Z,7.87
2022-12-12T11:22:26.248Z,8.75
2022-12-12T11:25:31.645Z,7.85
2022-12-12T11:28:38.577Z,8.30
2022-12-12T11:31:43.856Z,8.02
2022-12-12T11:34:51.542Z,8.20
2022-12-12T11:38:22.204Z,8.75
2022-12-12T11:41:24.607Z,8.73
2022-12-12T11:44:35.239Z,9.15
2022-12-12T11:47:43.817Z,7.95
2022-12-12T11:50:46.546Z,9.07
2022-12-12T11:53:49.054Z,8.55
2022-12-12T11:57:06.244Z,8.82
2022-12-12T12:00:16.335Z,8.32
2022-12-12T12:03:44.823Z,8.70
2022-12-12T12:07:31.025Z,9.35
2022-12-12T12:10:48.363Z,8.48
2022-12-12T12:14:19.123Z,8.93
2022-12-12T12:17:43.564Z,8.68
2022-12-12T12:21:15.550Z,8.60
2022-12-12T12:24:38.615Z,8.15
2022-12-12T12:27:54.916Z,8.25
2022-12-12T12:31:03.560Z,8.30
2022-12-12T12:34:11.829Z,8.02
2022-12-12T12:37:17.561Z,8.55
2022-12-12T12:40:53.337Z,8.30
2022-12-12T12:44:23.101Z,8.57
2022-12-12T12:47:41.741Z,8.38
2022-12-12T12:50:50.114Z,9.52
2022-12-12T12:54:06.722Z,8.98
2022-12-12T12:57:19.569Z,9.10
2022-12-12T13:00:28.758Z,8.95
2022-12-12T13:03:40.633Z,8.82
2022-12-12T13:07:01.729Z,9.40
2022-12-12T13:10:31.087Z,9.20
2022-12-12T13:13:38.766Z,8.82
2022-12-12T13:16:42.700Z,8.85
2022-12-12T13:19:49.820Z,8.25
2022-12-12T13:22:58.219Z,8.25
2022-12-12T13:26:11.869Z,8.43
2022-12-12T13:29:44.679Z,8.25
2022-12-12T13:33:13.603Z,7.57
2022-12-12T13:36:29.531Z,8.00
2022-12-12T13:39:38.081Z,7.95
2022-12-12T13:43:10.060Z,7.70
2022-12-12T13:46:22.095Z,6.82
2022-12-12T13:49:30.353Z,7.15
2022-12-12T13:52:35.222Z,7.35
2022-12-12T13:55:38.324Z,7.50
2022-12-12T13:58:40.447Z,7.47
2022-12-12T14:01:43.053Z,6.97
2022-12-12T14:04:46.592Z,6.97
2022-12-12T14:07:52.475Z,7.47
2022-12-12T14:10:59.891Z,7.25
2022-12-12T14:14:22.008Z,7.65
2022-12-12T14:17:26.731Z,7.57
2022-12-12T14:20:33.200Z,7.55
2022-12-12T14:23:41.860Z,7.80
2022-12-12T14:26:44.227Z,7.22
2022-12-12T14:29:46.612Z,8.02
2022-12-12T14:33:07.883Z,8.70
2022-12-12T14:36:31.528Z,7.93
2022-12-12T14:39:51.556Z,8.52
2022-12-12T14:43:20.263Z,8.30
2022-12-12T14:46:24.744Z,8.25
2022-12-12T14:49:27.267Z,8.85
2022-12-12T14:52:29.455Z,9.63
2022-12-12T14:55:31.966Z,8.85
2022-12-12T14:58:41.355Z,9.20
2022-12-12T15:01:50.315Z,8.52
2022-12-12T15:05:00.891Z,8.57
2022-12-12T15:08:19.301Z,9.27
2022-12-12T15:11:30.498Z,8.98
2022-12-12T15:14:32.952Z,9.60
2022-12-12T15:17:49.713Z,10.13
2022-12-12T15:20:57.297Z,9.70
2022-12-12T15:23:59.690Z,9.80
2022-12-12T15:27:02.200Z,9.18
2022-12-12T15:30:21.716Z,10.07
2022-12-12T15:33:27.554Z,10.15
2022-12-12T15:36:29.817Z,10.93
2022-12-12T15:39:32.263Z,11.10
2022-12-12T15:42:40.277Z,10.50
2022-12-12T15:45:49.413Z,10.77
2022-12-12T15:48:51.515Z,10.55
2022-12-12T15:51:54.114Z,10.20
2022-12-12T15:55:03.094Z,10.57
2022-12-12T15:58:05.567Z,10.20
2022-12-12T16:01:20.774Z,10.52
2022-12-12T16:04:26.102Z,10.52
2022-12-12T16:07:29.564Z,10.68
2022-12-12T16:10:31.998Z,9.82
2022-12-12T16:13:41.878Z,9.98
2022-12-12T16:16:48.250Z,9.43
2022-12-12T16:20:07.423Z,9.88
2022-12-12T16:23:22.844Z,9.60
2022-12-12T16:26:25.026Z,8.73
2022-12-12T16:29:27.635Z,9.68
2022-12-12T16:32:29.828Z,9.23
2022-12-12T16:35:34.815Z,8.07
2022-12-12T16:38:40.146Z,9.23
2022-12-12T16:41:42.829Z,8.45
2022-12-12T16:44:47.125Z,7.90
2022-12-12T16:47:49.697Z,7.43
2022-12-12T16:50:56.673Z,8.00
2022-12-12T16:53:59.996Z,8.20
2022-12-12T16:57:02.193Z,8.18
2022-12-12T17:00:05.268Z,7.75
2022-12-12T17:03:07.774Z,8.50
2022-12-12T17:06:10.270Z,8.07
2022-12-12T17:09:12.445Z,7.93
2022-12-12T17:12:15.744Z,8.45
2022-12-12T17:15:22.859Z,9.35
2022-12-12T17:18:25.342Z,8.38
2022-12-12T17:21:27.434Z,9.23
2022-12-12T17:24:30.094Z,9.32
2022-12-12T17:27:32.245Z,8.63
2022-12-12T17:30:36.821Z,9.60
2022-12-12T17:33:49.561Z,9.52
2022-12-12T17:36:52.692Z,9.30
2022-12-12T17:39:54.884Z,9.35
2022-12-12T17:42:57.700Z,10.10
2022-12-12T17:46:03.239Z,8.93
2022-12-12T17:49:05.832Z,9.23
2022-12-12T17:52:07.997Z,9.02
2022-12-12T17:55:53.432Z,9.48
2022-12-12T17:58:34.412Z,9.90
2022-12-12T18:01:37.067Z,10.32
2022-12-12T18:04:40.403Z,10.18
2022-12-12T18:07:42.654Z,10.82
2022-12-12T18:10:45.632Z,11.32
2022-12-12T18:13:48.546Z,11.23
2022-12-12T18:16:52.974Z,11.45
2022-12-12T18:19:55.309Z,11.20
2022-12-12T18:22:58.296Z,11.15
2022-12-12T18:26:10.437Z,11.60
2022-12-12T18:29:13.522Z,11.27
2022-12-12T18:32:15.833Z,11.12
2022-12-12T18:35:19.106Z,11.77
2022-12-12T18:38:21.301Z,13.00
2022-12-12T18:41:26.350Z,12.40
2022-12-12T18:44:28.568Z,12.20
2022-12-12T18:47:31.162Z,12.02
2022-12-12T18:50:34.475Z,12.75
2022-12-12T18:53:38.923Z,12.23
2022-12-12T18:56:45.062Z,11.88
2022-12-12T18:59:47.634Z,12.05
2022-12-12T19:02:49.973Z,12.07
2022-12-12T19:05:52.633Z,11.63
2022-12-12T19:08:54.996Z,12.32
2022-12-12T19:12:02.224Z,12.00
2022-12-12T19:15:16.887Z,13.02
2022-12-12T19:18:20.713Z,11.75
2022-12-12T19:21:25.433Z,11.45
2022-12-12T19:24:27.917Z,10.15
2022-12-12T19:27:31.618Z,11.05
2022-12-12T19:30:38.397Z,11.02
2022-12-12T19:33:42.399Z,10.18
2022-12-12T19:36:44.954Z,10.35
2022-12-12T19:39:48.586Z,10.23
2022-12-12T19:42:51.266Z,10.57
2022-12-12T19:46:07.327Z,10.93
2022-12-12T19:49:12.996Z,11.25
2022-12-12T19:52:15.272Z,10.93
2022-12-12T19:55:17.954Z,11.18
2022-12-12T19:58:20.156Z,11.32
2022-12-12T20:01:26.953Z,11.15
2022-12-12T20:04:30.616Z,11.98
2022-12-12T20:07:32.917Z,11.15
2022-12-12T20:10:36.533Z,11.02
2022-12-12T20:13:39.212Z,12.25
2022-12-12T20:16:42.588Z,11.25
2022-12-12T20:19:47.237Z,11.18
2022-12-12T20:22:49.777Z,11.10
2022-12-12T20:25:52.020Z,11.32
2022-12-12T20:28:57.605Z,10.73
2022-12-12T20:32:01.261Z,10.55
2022-12-12T20:35:04.373Z,11.05
2022-12-12T20:38:06.728Z,10.80
2022-12-12T20:41:18.033Z,10.80
2022-12-12T20:44:20.273Z,11.07
2022-12-12T20:47:23.156Z,11.30
2022-12-12T20:50:26.208Z,11.10
2022-12-12T20:53:33.431Z,11.70
2022-12-12T20:56:44.517Z,10.65
2022-12-12T20:59:48.637Z,11.70
2022-12-12T21:02:50.918Z,12.37
2022-12-12T21:05:54.354Z,11.98
2022-12-12T21:08:59.963Z,12.07
2022-12-12T21:12:02.757Z,11.02
2022-12-12T21:15:05.220Z,11.63
2022-12-12T21:18:07.688Z,11.73
2022-12-12T21:21:11.820Z,12.37
2022-12-12T21:24:17.062Z,11.40
2022-12-12T21:27:19.188Z,11.73
2022-12-12T21:30:21.790Z,10.95
2022-12-12T21:33:24.297Z,10.73
2022-12-12T21:36:28.153Z,10.60
2022-12-12T21:39:30.389Z,11.60
2022-12-12T21:42:34.160Z,10.35
2022-12-12T21:45:39.574Z,9.98
2022-12-12T21:48:42.340Z,9.90
2022-12-12T21:51:44.775Z,9.52
2022-12-12T21:54:47.380Z,10.80
2022-12-12T21:57:49.603Z,10.18
2022-12-12T22:00:52.123Z,10.73
2022-12-12T22:03:55.272Z,11.63
2022-12-12T22:06:58.048Z,12.57
2022-12-12T22:10:11.408Z,13.10
2022-12-12T22:13:14.012Z,13.32
2022-12-12T22:16:19.506Z,13.40
2022-12-12T22:19:21.778Z,12.75
2022-12-12T22:22:25.187Z,11.85
2022-12-12T22:25:30.545Z,11.10
2022-12-12T22:28:32.963Z,10.85
2022-12-12T22:31:39.680Z,11.02
2022-12-12T22:34:44.068Z,11.12
2022-12-12T22:37:46.197Z,11.82
2022-12-12T22:40:55.311Z,12.00
2022-12-12T22:44:00.325Z,11.98
2022-12-12T22:47:02.757Z,11.48
2022-12-12T22:50:05.425Z,10.82
2022-12-12T22:53:08.649Z,11.18
2022-12-12T22:56:11.514Z,10.63
2022-12-12T22:59:14.544Z,10.82
2022-12-12T23:02:21.537Z,11.57
2022-12-12T23:05:27.230Z,10.48
2022-12-12T23:08:29.491Z,10.38
2022-12-12T23:11:33.392Z,9.50
2022-12-12T23:14:35.529Z,10.02
2022-12-12T23:17:37.954Z,9.80
2022-12-12T23:20:40.145Z,10.40
2022-12-12T23:23:42.769Z,9.93
2022-12-12T23:26:45.072Z,10.00
2022-12-12T23:29:47.442Z,10.63
2022-12-12T23:32:49.555Z,10.70
2022-12-12T23:35:52.701Z,10.13
2022-12-12T23:38:59.799Z,10.75
2022-12-12T23:42:02.364Z,11.12
2022-12-12T23:45:05.052Z,10.95
2022-12-12T23:48:07.921Z,10.50
2022-12-12T23:51:10.079Z,11.65
2022-12-12T23:54:17.667Z,11.38
2022-12-12T23:57:19.836Z,12.13
